CYQY

Sydney / J.A. Douglas McCurdy Airport

Sydney, Nova Scotia, Canada
TAF AMD CYQY 182304Z 1823/1906 30020G30KT P6SM SCT020 BKN030 TEMPO 1823/1906 4SM -SHSN BLSN BKN020 OVC030 RMK NXT FCST BY 190000Z
Issued Valid From Valid To
Dec-18 @ 23:04 UTC
(15 minutes ago)
Dec-18 @ 23:00 UTC
(19 minutes ago)
Dec-19 @ 06:00 UTC
(in 7 hours)
Dec-18 @ 23:00 to Dec-19 @ 06:00
TAF AMD CYQY 182304Z 1823/1906 30020G30KT P6SM SCT020 BKN030
Wind Visibility Clouds
300° at 20 knots
 Gusting to 30 knots
Greater than 6 miles
  • Scattered at 2,000' AGL
  • Broken at 3,000' AGL
Temporary Dec-18 @ 23:00 to Dec-19 @ 06:00
TEMPO 1823/1906 4SM -SHSN BLSN BKN020 OVC030 RMK NXT FCST BY 190000Z
Visibility Clouds Conditions
4 miles
  • Broken at 2,000' AGL
  • Overcast at 3,000' AGL
  • Light Snow
  • Blowing
  • Snow
TAF AMD CYQY 182304Z 1823/1906 30020G30KT P6SM SCT020 BKN030 TEMPO 1823/1906 4SM -SHSN BLSN BKN020 OVC030 RMK NXT FCST BY 190000Z
Issued Dec-18 @ 23:04 UTC
(15 minutes ago)
Valid From Dec-18 @ 23:00 UTC
(19 minutes ago)
Valid To Dec-19 @ 06:00 UTC
(in 7 hours)
Dec-18 @ 23:00 - Dec-19 @ 06:00
Wind Visibility
300° at 20 knots
 Gusting to 30 knots
Greater than 6 miles
Clouds
  • Scattered at 2,000' AGL
  • Broken at 3,000' AGL
Temporary Dec-18 @ 23:00 - Dec-19 @ 06:00
Clouds
  • Broken at 2,000' AGL
  • Overcast at 3,000' AGL
Conditions
  • Light Snow
  • Blowing
  • Snow